createdAt,value
2024-01-25T00:00:10.169Z,27.54
2024-01-25T00:01:07.834Z,27.56
2024-01-25T00:02:07.886Z,27.61
2024-01-25T00:03:07.825Z,27.59
2024-01-25T00:04:08.057Z,27.57
2024-01-25T00:05:10.891Z,27.55
2024-01-25T00:06:07.957Z,27.59
2024-01-25T00:07:07.973Z,27.59
2024-01-25T00:08:07.914Z,27.52
2024-01-25T00:09:08.346Z,27.55
2024-01-25T00:10:07.982Z,27.52
2024-01-25T00:11:07.956Z,27.56
2024-01-25T00:12:07.942Z,27.61
2024-01-25T00:13:08.001Z,27.54
2024-01-25T00:14:07.978Z,27.58
2024-01-25T00:15:07.973Z,27.59
2024-01-25T00:16:08.089Z,27.62
2024-01-25T00:17:08.000Z,27.55
2024-01-25T00:18:08.031Z,27.58
2024-01-25T00:19:08.083Z,27.62
2024-01-25T00:20:08.208Z,27.59
2024-01-25T00:21:08.041Z,27.56
2024-01-25T00:22:08.097Z,27.49
2024-01-25T00:23:08.046Z,27.56
2024-01-25T00:24:08.060Z,27.55
2024-01-25T00:25:08.105Z,27.58
2024-01-25T00:26:08.116Z,27.58
2024-01-25T00:27:08.149Z,27.59
2024-01-25T00:28:08.228Z,27.58
2024-01-25T00:29:08.205Z,27.58
2024-01-25T00:30:08.227Z,27.54
2024-01-25T00:31:08.239Z,27.56
2024-01-25T00:32:08.227Z,27.59
2024-01-25T00:33:08.374Z,27.53
2024-01-25T00:34:09.449Z,27.55
2024-01-25T00:35:08.436Z,27.55
2024-01-25T00:36:08.299Z,27.56
2024-01-25T00:37:08.365Z,27.56
2024-01-25T00:38:08.301Z,27.58
2024-01-25T00:39:09.410Z,27.53
2024-01-25T00:40:08.327Z,27.55
2024-01-25T00:41:08.321Z,27.52
2024-01-25T00:42:08.323Z,27.56
2024-01-25T00:43:08.367Z,27.55
2024-01-25T00:44:10.864Z,27.59
2024-01-25T00:45:08.355Z,27.56
2024-01-25T00:46:08.387Z,27.59
2024-01-25T00:47:08.369Z,27.52
2024-01-25T00:48:08.439Z,27.59
2024-01-25T00:49:09.951Z,27.60
2024-01-25T00:50:08.611Z,27.56
2024-01-25T00:51:08.349Z,27.55
2024-01-25T00:52:08.418Z,27.58
2024-01-25T00:53:08.371Z,27.56
2024-01-25T00:54:08.406Z,27.58
2024-01-25T00:55:08.459Z,27.56
2024-01-25T00:56:08.392Z,27.53
2024-01-25T00:57:08.403Z,27.52
2024-01-25T00:58:08.420Z,27.52
2024-01-25T00:59:08.560Z,27.52
2024-01-25T01:00:08.428Z,27.52
2024-01-25T01:01:08.507Z,27.50
2024-01-25T01:02:09.471Z,27.52
2024-01-25T01:03:08.420Z,27.52
2024-01-25T01:04:08.499Z,27.56
2024-01-25T01:05:08.595Z,27.55
2024-01-25T01:06:08.513Z,27.56
2024-01-25T01:07:08.554Z,27.48
2024-01-25T01:08:08.612Z,27.52
2024-01-25T01:09:08.467Z,27.51
2024-01-25T01:10:09.491Z,27.53
2024-01-25T01:11:08.477Z,27.56
2024-01-25T01:12:08.500Z,27.56
2024-01-25T01:13:08.600Z,27.50
2024-01-25T01:14:08.548Z,27.57
2024-01-25T01:15:08.513Z,27.55
2024-01-25T01:16:08.530Z,27.49
2024-01-25T01:17:08.520Z,27.50
2024-01-25T01:18:08.621Z,27.56
2024-01-25T01:19:09.038Z,27.56
2024-01-25T01:20:08.679Z,27.55
2024-01-25T01:21:08.564Z,27.50
2024-01-25T01:22:08.595Z,27.50
2024-01-25T01:23:08.566Z,27.53
2024-01-25T01:24:08.594Z,27.52
2024-01-25T01:25:08.609Z,27.52
2024-01-25T01:26:08.612Z,27.50
2024-01-25T01:27:08.602Z,27.55
2024-01-25T01:28:08.768Z,27.55
2024-01-25T01:29:08.645Z,27.53
2024-01-25T01:30:08.662Z,27.52
2024-01-25T01:31:08.696Z,27.49
2024-01-25T01:32:08.629Z,27.52
2024-01-25T01:33:08.719Z,27.53
2024-01-25T01:34:08.833Z,27.52
2024-01-25T01:35:08.909Z,27.45
2024-01-25T01:36:08.672Z,27.47
2024-01-25T01:37:08.773Z,27.55
2024-01-25T01:38:08.665Z,27.53
2024-01-25T01:39:08.666Z,27.56
2024-01-25T01:40:08.729Z,27.52
2024-01-25T01:41:08.722Z,27.50
2024-01-25T01:42:08.789Z,27.50
2024-01-25T01:43:08.845Z,27.53
2024-01-25T01:44:08.779Z,27.52
2024-01-25T01:45:08.789Z,27.47
2024-01-25T01:46:08.797Z,27.52
2024-01-25T01:47:08.921Z,27.49
2024-01-25T01:48:08.979Z,27.49
2024-01-25T01:49:08.965Z,27.50
2024-01-25T01:50:08.980Z,27.56
2024-01-25T01:51:08.913Z,27.53
2024-01-25T01:52:08.863Z,27.48
2024-01-25T01:53:08.841Z,27.50
2024-01-25T01:54:08.857Z,27.50
2024-01-25T01:55:08.978Z,27.47
2024-01-25T01:56:08.893Z,27.53
2024-01-25T01:57:08.920Z,27.49
2024-01-25T01:58:09.000Z,27.52
2024-01-25T01:59:08.952Z,27.50
2024-01-25T02:00:08.971Z,27.49
2024-01-25T02:01:09.088Z,27.46
2024-01-25T02:02:09.092Z,27.50
2024-01-25T02:03:09.105Z,27.49
2024-01-25T02:04:09.216Z,27.50
2024-01-25T02:05:09.127Z,27.50
2024-01-25T02:06:09.101Z,27.50
2024-01-25T02:07:09.196Z,27.52
2024-01-25T02:08:09.117Z,27.48
2024-01-25T02:09:09.138Z,27.50
2024-01-25T02:10:09.186Z,27.53
2024-01-25T02:11:09.140Z,27.46
2024-01-25T02:12:09.168Z,27.52
2024-01-25T02:13:09.179Z,27.45
2024-01-25T02:14:09.152Z,27.49
2024-01-25T02:15:09.226Z,27.46
2024-01-25T02:16:09.212Z,27.50
2024-01-25T02:17:09.225Z,27.50
2024-01-25T02:18:09.188Z,27.48
2024-01-25T02:19:09.309Z,27.50
2024-01-25T02:20:09.329Z,27.52
2024-01-25T02:21:09.206Z,27.47
2024-01-25T02:22:09.402Z,27.50
2024-01-25T02:23:09.219Z,27.45
2024-01-25T02:24:09.215Z,27.46
2024-01-25T02:25:09.287Z,27.49
2024-01-25T02:26:09.234Z,27.45
2024-01-25T02:27:09.241Z,27.46
2024-01-25T02:28:09.320Z,27.50
2024-01-25T02:29:09.254Z,27.47
2024-01-25T02:30:09.264Z,27.46
2024-01-25T02:31:09.305Z,27.49
2024-01-25T02:32:09.306Z,27.45
2024-01-25T02:33:09.461Z,27.47
2024-01-25T02:34:09.564Z,27.45
2024-01-25T02:35:09.526Z,27.49
2024-01-25T02:36:09.391Z,27.42
2024-01-25T02:37:09.476Z,27.46
2024-01-25T02:38:09.381Z,27.49
2024-01-25T02:39:09.390Z,27.44
2024-01-25T02:40:09.460Z,27.47
2024-01-25T02:41:09.393Z,27.46
2024-01-25T02:42:09.394Z,27.47
2024-01-25T02:43:09.474Z,27.45
2024-01-25T02:44:09.389Z,27.45
2024-01-25T02:45:09.394Z,27.44
2024-01-25T02:46:09.459Z,27.49
2024-01-25T02:47:09.392Z,27.46
2024-01-25T02:48:09.505Z,27.45
2024-01-25T02:49:09.730Z,27.46
2024-01-25T02:50:09.555Z,27.49
2024-01-25T02:51:09.526Z,27.44
2024-01-25T02:52:09.617Z,27.44
2024-01-25T02:53:09.639Z,27.45
2024-01-25T02:54:09.655Z,27.44
2024-01-25T02:55:09.826Z,27.45
2024-01-25T02:56:09.679Z,27.41
2024-01-25T02:57:09.705Z,27.42
2024-01-25T02:58:09.758Z,27.41
2024-01-25T02:59:09.700Z,27.46
2024-01-25T03:00:09.715Z,27.39
2024-01-25T03:01:09.810Z,27.41
2024-01-25T03:02:09.836Z,27.43
2024-01-25T03:03:09.728Z,27.49
2024-01-25T03:04:09.825Z,27.45
2024-01-25T03:05:09.869Z,27.47
2024-01-25T03:06:09.814Z,27.42
2024-01-25T03:07:09.825Z,27.42
2024-01-25T03:08:09.775Z,27.46
2024-01-25T03:09:09.764Z,27.39
2024-01-25T03:10:09.785Z,27.44
2024-01-25T03:11:09.859Z,27.44
2024-01-25T03:12:09.848Z,27.44
2024-01-25T03:13:09.987Z,27.46
2024-01-25T03:14:09.938Z,27.44
2024-01-25T03:15:09.973Z,27.46
2024-01-25T03:16:10.081Z,27.41
2024-01-25T03:17:10.049Z,27.46
2024-01-25T03:18:10.197Z,27.46
2024-01-25T03:19:10.229Z,27.47
2024-01-25T03:20:10.406Z,27.43
2024-01-25T03:21:10.247Z,27.48
2024-01-25T03:22:10.347Z,27.50
2024-01-25T03:23:10.324Z,27.46
2024-01-25T03:24:10.378Z,27.49
2024-01-25T03:25:10.489Z,27.50
2024-01-25T03:26:10.441Z,27.46
2024-01-25T03:27:10.421Z,27.45
2024-01-25T03:28:10.452Z,27.52
2024-01-25T03:29:10.433Z,27.47
2024-01-25T03:30:10.440Z,27.47
2024-01-25T03:31:10.473Z,27.47
2024-01-25T03:32:10.443Z,27.46
2024-01-25T03:33:10.513Z,27.53
2024-01-25T03:34:10.675Z,27.50
2024-01-25T03:35:10.828Z,27.47
2024-01-25T03:36:10.434Z,27.49
2024-01-25T03:37:10.509Z,27.46
2024-01-25T03:38:10.464Z,27.45
2024-01-25T03:39:10.477Z,27.46
2024-01-25T03:40:11.318Z,27.50
2024-01-25T03:41:10.522Z,27.46
2024-01-25T03:42:10.571Z,27.50
2024-01-25T03:43:18.906Z,27.47
2024-01-25T03:44:11.615Z,27.49
2024-01-25T03:45:10.616Z,27.47
2024-01-25T03:46:10.674Z,27.50
2024-01-25T03:47:10.623Z,27.46
2024-01-25T03:48:10.694Z,27.46
2024-01-25T03:49:10.733Z,27.43
2024-01-25T03:50:10.729Z,27.52
2024-01-25T03:51:10.605Z,27.46
2024-01-25T03:52:10.607Z,27.43
2024-01-25T03:53:10.640Z,27.43
2024-01-25T03:54:10.628Z,27.49
2024-01-25T03:55:10.649Z,27.44
2024-01-25T03:56:10.598Z,27.49
2024-01-25T03:57:10.673Z,27.47
2024-01-25T03:58:10.690Z,27.47
2024-01-25T03:59:10.648Z,27.42
2024-01-25T04:00:10.670Z,27.50
2024-01-25T04:01:10.806Z,27.44
2024-01-25T04:02:10.736Z,27.47
2024-01-25T04:03:10.740Z,27.49
2024-01-25T04:04:10.765Z,27.46
2024-01-25T04:05:12.018Z,27.49
2024-01-25T04:06:10.759Z,27.51
2024-01-25T04:07:10.707Z,27.50
2024-01-25T04:08:10.672Z,27.46
2024-01-25T04:09:10.675Z,27.46
2024-01-25T04:10:10.951Z,27.44
2024-01-25T04:11:10.692Z,27.50
2024-01-25T04:12:10.708Z,27.45
2024-01-25T04:13:10.765Z,27.47
2024-01-25T04:14:19.738Z,27.50
2024-01-25T04:15:18.789Z,27.49
2024-01-25T04:16:18.044Z,27.49
2024-01-25T04:17:18.010Z,27.50
2024-01-25T04:18:18.140Z,27.47
2024-01-25T04:19:18.137Z,27.49
2024-01-25T04:20:24.113Z,27.47
2024-01-25T04:21:18.021Z,27.50
2024-01-25T04:22:18.173Z,27.49
2024-01-25T04:23:18.040Z,27.47
2024-01-25T04:24:18.029Z,27.53
2024-01-25T04:25:19.116Z,27.50
2024-01-25T04:26:18.005Z,27.49
2024-01-25T04:27:17.989Z,27.51
2024-01-25T04:28:18.033Z,27.52
2024-01-25T04:29:17.994Z,27.44
2024-01-25T04:30:18.193Z,27.46
2024-01-25T04:31:26.672Z,27.50
2024-01-25T04:32:25.777Z,27.51
2024-01-25T04:33:25.809Z,27.50
2024-01-25T04:34:25.877Z,27.47
2024-01-25T04:35:26.310Z,27.46
2024-01-25T04:36:25.759Z,27.52
2024-01-25T04:37:25.798Z,27.43
2024-01-25T04:38:25.756Z,27.43
2024-01-25T04:39:25.776Z,27.49
2024-01-25T04:40:25.914Z,27.46
2024-01-25T04:41:25.811Z,27.47
2024-01-25T04:42:25.807Z,27.47
2024-01-25T04:43:25.845Z,27.47
2024-01-25T04:44:25.867Z,27.47
2024-01-25T04:59:44.493Z,27.46
2024-01-25T05:00:25.761Z,27.44
2024-01-25T05:04:27.407Z,27.47
2024-01-25T05:05:25.888Z,27.47
2024-01-25T05:06:25.770Z,27.46
2024-01-25T05:07:29.936Z,27.47
2024-01-25T05:08:26.833Z,27.46
2024-01-25T05:09:25.782Z,27.43
2024-01-25T05:10:25.886Z,27.44
2024-01-25T05:11:25.818Z,27.47
2024-01-25T05:12:25.830Z,27.44
2024-01-25T05:13:25.869Z,27.44
2024-01-25T05:14:25.821Z,27.44
2024-01-25T05:15:25.837Z,27.43
2024-01-25T05:16:25.956Z,27.46
2024-01-25T05:17:25.935Z,27.44
2024-01-25T05:18:25.911Z,27.46
2024-01-25T05:19:25.931Z,27.42
2024-01-25T05:20:26.028Z,27.43
2024-01-25T05:21:25.858Z,27.46
2024-01-25T05:22:25.894Z,27.43
2024-01-25T05:23:25.919Z,27.42
2024-01-25T05:24:25.958Z,27.44
2024-01-25T05:25:26.026Z,27.38
2024-01-25T05:26:26.044Z,27.42
2024-01-25T05:27:26.086Z,27.42
2024-01-25T05:28:26.298Z,27.43
2024-01-25T05:29:26.192Z,27.41
2024-01-25T05:30:26.259Z,27.42
2024-01-25T05:31:26.373Z,27.42
2024-01-25T05:32:26.340Z,27.40
2024-01-25T05:33:26.455Z,27.43
2024-01-25T05:34:26.612Z,27.44
2024-01-25T05:35:26.524Z,27.44
2024-01-25T05:36:26.466Z,27.40
2024-01-25T05:37:26.482Z,27.40
2024-01-25T05:38:26.471Z,27.46
2024-01-25T05:39:26.477Z,27.38
2024-01-25T05:40:26.626Z,27.42
2024-01-25T05:41:26.491Z,27.43
2024-01-25T05:42:26.498Z,27.46
2024-01-25T05:43:26.605Z,27.43
2024-01-25T05:44:26.535Z,27.46
2024-01-25T05:45:26.524Z,27.39
2024-01-25T05:46:26.633Z,27.40
2024-01-25T05:47:26.601Z,27.40
2024-01-25T05:48:26.679Z,27.42
2024-01-25T05:49:26.729Z,27.39
2024-01-25T05:50:26.693Z,27.41
2024-01-25T05:51:26.570Z,27.40
2024-01-25T05:52:26.767Z,27.40
2024-01-25T05:53:26.573Z,27.39
2024-01-25T05:54:26.614Z,27.36
2024-01-25T05:55:26.674Z,27.39
2024-01-25T05:56:26.599Z,27.43
2024-01-25T05:57:26.619Z,27.40
2024-01-25T05:58:26.826Z,27.36
2024-01-25T05:59:26.620Z,27.38
2024-01-25T06:00:26.639Z,27.42
2024-01-25T06:01:26.695Z,27.42
2024-01-25T06:02:26.787Z,27.40
2024-01-25T06:03:26.703Z,27.36
2024-01-25T06:04:26.761Z,27.35
2024-01-25T06:05:26.910Z,27.40
2024-01-25T06:06:26.841Z,27.37
2024-01-25T06:07:26.777Z,27.41
2024-01-25T06:08:26.768Z,27.37
2024-01-25T06:09:26.734Z,27.33
2024-01-25T06:10:26.992Z,27.33
2024-01-25T06:11:26.699Z,27.38
2024-01-25T06:12:26.790Z,27.35
2024-01-25T06:13:26.740Z,27.35
2024-01-25T06:14:26.695Z,27.34
2024-01-25T06:15:26.713Z,27.38
2024-01-25T06:16:26.775Z,27.39
2024-01-25T06:17:26.811Z,27.35
2024-01-25T06:18:26.835Z,27.35
2024-01-25T06:19:26.862Z,27.38
2024-01-25T06:20:26.986Z,27.36
2024-01-25T06:21:26.751Z,27.39
2024-01-25T06:22:26.804Z,27.37
2024-01-25T06:23:26.786Z,27.38
2024-01-25T06:24:26.781Z,27.35
2024-01-25T06:25:26.898Z,27.36
2024-01-25T06:26:26.784Z,27.36
2024-01-25T06:27:26.792Z,27.39
2024-01-25T06:28:26.923Z,27.38
2024-01-25T06:29:26.821Z,27.40
2024-01-25T06:30:26.804Z,27.38
2024-01-25T06:31:26.967Z,27.67
2024-01-25T06:32:27.349Z,28.24
2024-01-25T06:33:26.859Z,28.72
2024-01-25T06:34:26.993Z,29.18
2024-01-25T06:35:27.112Z,30.24
2024-01-25T06:36:26.841Z,30.11
2024-01-25T06:37:26.839Z,30.48
2024-01-25T06:38:26.820Z,30.56
2024-01-25T06:39:26.826Z,30.72
2024-01-25T06:40:26.932Z,30.87
2024-01-25T06:41:26.841Z,31.15
2024-01-25T06:42:26.850Z,31.97
2024-01-25T06:43:26.971Z,31.61
2024-01-25T06:44:26.858Z,31.76
2024-01-25T06:45:26.880Z,31.91
2024-01-25T06:46:26.956Z,32.02
2024-01-25T06:47:26.843Z,32.49
2024-01-25T06:48:26.940Z,32.19
2024-01-25T06:49:26.991Z,32.38
2024-01-25T06:50:27.049Z,32.60
2024-01-25T06:51:26.834Z,32.60
2024-01-25T06:52:27.992Z,32.65
2024-01-25T06:53:26.909Z,32.59
2024-01-25T06:54:26.837Z,32.63
2024-01-25T06:55:26.870Z,32.61
2024-01-25T06:56:26.852Z,32.58
2024-01-25T06:57:26.880Z,32.59
2024-01-25T06:58:27.101Z,32.78
2024-01-25T06:59:26.927Z,32.71
2024-01-25T07:00:26.889Z,32.61
2024-01-25T07:01:26.900Z,32.61
2024-01-25T07:02:27.020Z,32.64
2024-01-25T07:03:26.909Z,32.66
2024-01-25T07:04:27.013Z,32.60
2024-01-25T07:05:26.853Z,32.64
2024-01-25T07:06:26.896Z,32.70
2024-01-25T07:07:26.845Z,32.57
2024-01-25T07:08:26.848Z,32.55
2024-01-25T07:09:26.821Z,32.51
2024-01-25T07:10:26.881Z,32.54
2024-01-25T07:11:26.819Z,32.49
2024-01-25T07:12:26.816Z,32.66
2024-01-25T07:13:26.918Z,32.66
2024-01-25T07:14:26.794Z,32.53
2024-01-25T07:15:26.822Z,32.47
2024-01-25T07:16:26.887Z,32.28
2024-01-25T07:17:26.785Z,32.53
2024-01-25T07:18:26.836Z,32.44
2024-01-25T07:19:26.906Z,32.47
2024-01-25T07:20:26.969Z,32.51
2024-01-25T07:21:26.793Z,32.48
2024-01-25T07:22:26.960Z,32.61
2024-01-25T07:23:26.895Z,32.51
2024-01-25T07:24:26.935Z,32.43
2024-01-25T07:25:28.086Z,32.39
2024-01-25T07:26:27.030Z,32.46
2024-01-25T07:27:27.079Z,32.42
2024-01-25T07:28:27.337Z,32.49
2024-01-25T07:29:27.205Z,32.80
2024-01-25T07:30:27.257Z,32.76
2024-01-25T07:31:27.437Z,33.01
2024-01-25T07:32:27.338Z,32.64
2024-01-25T07:33:27.545Z,32.56
2024-01-25T07:34:27.524Z,32.43
2024-01-25T07:35:27.567Z,32.70
2024-01-25T07:36:27.527Z,32.47
2024-01-25T07:37:27.610Z,32.51
2024-01-25T07:38:28.557Z,32.65
2024-01-25T07:39:27.694Z,32.60
2024-01-25T07:47:04.232Z,32.25
2024-01-25T07:47:27.580Z,32.22
2024-01-25T07:48:27.627Z,32.07
2024-01-25T07:49:27.666Z,31.89
2024-01-25T07:50:27.703Z,31.79
2024-01-25T07:51:27.525Z,31.65
2024-01-25T07:52:27.926Z,31.61
2024-01-25T07:53:27.487Z,31.49
2024-01-25T07:54:27.511Z,31.40
2024-01-25T07:55:27.520Z,31.29
2024-01-25T07:56:27.466Z,31.12
2024-01-25T07:57:27.464Z,31.01
2024-01-25T07:58:27.629Z,30.94
2024-01-25T07:59:27.445Z,30.81
2024-01-25T08:00:27.428Z,30.63
2024-01-25T08:01:27.449Z,30.71
2024-01-25T08:02:27.514Z,30.70
2024-01-25T08:03:27.440Z,30.64
2024-01-25T08:04:27.481Z,30.57
2024-01-25T08:05:34.444Z,30.49
2024-01-25T08:06:28.546Z,30.45
2024-01-25T08:07:27.550Z,30.49
2024-01-25T08:08:27.321Z,30.44
2024-01-25T08:09:27.323Z,30.42
2024-01-25T08:10:27.480Z,30.39
2024-01-25T08:11:27.287Z,30.35
2024-01-25T08:12:27.337Z,30.31
2024-01-25T08:13:27.335Z,30.39
2024-01-25T08:14:27.267Z,30.32
2024-01-25T08:15:27.339Z,30.29
2024-01-25T08:16:27.429Z,30.27
2024-01-25T08:17:27.567Z,30.36
2024-01-25T08:18:27.513Z,30.51
2024-01-25T08:19:27.603Z,30.57
2024-01-25T08:20:28.796Z,30.70
2024-01-25T08:21:27.601Z,30.74
2024-01-25T08:22:27.671Z,30.91
2024-01-25T08:23:27.669Z,30.94
2024-01-25T08:24:27.698Z,31.01
2024-01-25T08:25:28.308Z,30.90
2024-01-25T08:26:27.926Z,31.01
2024-01-25T08:27:27.868Z,30.97
2024-01-25T08:28:28.261Z,30.98
2024-01-25T08:29:28.011Z,31.21
2024-01-25T08:30:28.062Z,31.29
2024-01-25T08:31:28.212Z,31.34
2024-01-25T08:32:28.317Z,31.35
2024-01-25T08:33:28.506Z,31.34
2024-01-25T08:34:28.413Z,31.37
2024-01-25T08:35:28.574Z,31.35
2024-01-25T08:36:28.417Z,31.45
2024-01-25T08:37:28.528Z,31.58
2024-01-25T08:38:29.081Z,31.43
2024-01-25T08:39:28.525Z,31.62
2024-01-25T08:44:43.373Z,30.92
2024-01-25T08:45:28.439Z,28.98
2024-01-25T08:46:28.514Z,28.41
2024-01-25T08:47:28.727Z,27.80
2024-01-25T08:48:28.587Z,27.28
2024-01-25T08:49:28.569Z,27.92
2024-01-25T08:50:28.521Z,27.58
2024-01-25T08:51:28.407Z,27.04
2024-01-25T08:52:28.571Z,27.18
2024-01-25T08:53:28.497Z,27.42
2024-01-25T08:54:28.409Z,27.65
2024-01-25T08:55:28.496Z,27.31
2024-01-25T08:56:28.503Z,27.47
2024-01-25T08:57:28.520Z,27.82
2024-01-25T08:58:28.555Z,27.62
2024-01-25T08:59:28.467Z,28.33
2024-01-25T09:00:28.434Z,28.46
2024-01-25T09:01:28.637Z,28.72
2024-01-25T09:02:28.603Z,28.70
2024-01-25T09:03:28.455Z,28.79
2024-01-25T09:04:28.520Z,28.93
2024-01-25T09:05:28.684Z,28.72
2024-01-25T09:06:28.497Z,28.93
2024-01-25T09:07:28.546Z,28.99
2024-01-25T09:08:28.660Z,28.61
2024-01-25T09:09:28.474Z,28.42
2024-01-25T09:10:28.511Z,28.26
2024-01-25T09:11:28.475Z,28.23
2024-01-25T09:12:28.470Z,27.88
2024-01-25T09:13:28.459Z,28.23
2024-01-25T09:14:28.469Z,28.55
2024-01-25T09:15:28.445Z,28.25
2024-01-25T09:16:28.574Z,28.49
2024-01-25T09:17:28.515Z,28.67
2024-01-25T09:18:28.558Z,28.87
2024-01-25T09:19:28.629Z,28.87
2024-01-25T09:20:28.549Z,29.07
2024-01-25T09:21:28.458Z,29.18
2024-01-25T09:22:28.526Z,29.18
2024-01-25T09:23:28.430Z,29.35
2024-01-25T09:24:28.398Z,29.46
2024-01-25T09:25:28.466Z,29.56
2024-01-25T09:26:28.381Z,29.66
2024-01-25T09:27:28.456Z,29.72
2024-01-25T09:28:28.474Z,29.82
2024-01-25T09:29:28.443Z,29.95
2024-01-25T09:30:28.470Z,30.10
2024-01-25T09:31:28.543Z,30.45
2024-01-25T09:32:28.491Z,30.29
2024-01-25T09:33:28.560Z,30.34
2024-01-25T09:34:28.574Z,30.47
2024-01-25T09:35:28.492Z,30.46
2024-01-25T09:36:28.498Z,28.65
2024-01-25T09:37:28.618Z,30.86
2024-01-25T09:38:28.525Z,30.89
2024-01-25T09:39:29.087Z,30.44
2024-01-25T09:40:29.269Z,30.33
2024-01-25T09:41:28.733Z,30.62
2024-01-25T09:42:28.738Z,30.85
2024-01-25T09:43:28.937Z,30.82
2024-01-25T09:44:28.871Z,30.53
2024-01-25T09:45:29.146Z,30.21
2024-01-25T09:46:29.104Z,30.28
2024-01-25T09:47:29.065Z,29.25
2024-01-25T09:48:29.116Z,30.03
2024-01-25T09:49:29.250Z,29.79
2024-01-25T09:50:29.153Z,30.13
2024-01-25T09:51:29.617Z,30.91
2024-01-25T09:52:29.268Z,31.10
2024-01-25T09:53:29.083Z,31.27
2024-01-25T09:54:30.856Z,31.37
2024-01-25T09:55:29.235Z,31.73
2024-01-25T09:56:29.157Z,31.95
2024-01-25T09:57:29.215Z,31.97
2024-01-25T09:58:29.322Z,32.06
2024-01-25T09:59:29.296Z,32.17
2024-01-25T10:00:31.806Z,32.15
2024-01-25T10:01:29.403Z,32.17
2024-01-25T10:02:29.396Z,32.17
2024-01-25T10:03:29.329Z,32.29
2024-01-25T10:04:29.405Z,32.21
2024-01-25T10:05:29.455Z,32.23
2024-01-25T10:06:29.482Z,32.18
2024-01-25T10:07:29.420Z,32.24
2024-01-25T10:08:29.350Z,32.22
2024-01-25T10:09:29.272Z,32.12
2024-01-25T10:10:29.501Z,31.45
2024-01-25T10:11:29.279Z,30.82
2024-01-25T10:12:29.283Z,31.36
2024-01-25T10:13:30.360Z,31.57
2024-01-25T10:14:29.294Z,31.53
2024-01-25T10:15:29.281Z,31.59
2024-01-25T10:16:29.591Z,31.66
2024-01-25T10:17:46.568Z,31.82
2024-01-25T10:18:31.143Z,32.03
2024-01-25T10:19:29.572Z,31.91
2024-01-25T10:20:31.615Z,31.95
2024-01-25T10:21:29.449Z,32.05
2024-01-25T10:22:29.529Z,32.07
2024-01-25T10:23:29.407Z,32.13
2024-01-25T10:24:29.464Z,32.09
2024-01-25T10:25:29.443Z,32.11
2024-01-25T10:26:29.299Z,32.07
2024-01-25T10:27:29.265Z,32.09
2024-01-25T10:28:29.953Z,31.70
2024-01-25T10:29:29.289Z,31.17
2024-01-25T10:30:29.325Z,31.21
2024-01-25T10:31:29.335Z,31.53
2024-01-25T10:32:29.330Z,31.22
2024-01-25T10:33:29.466Z,30.66
2024-01-25T10:34:29.379Z,30.42
2024-01-25T10:35:29.733Z,30.45
2024-01-25T10:36:29.290Z,30.99
2024-01-25T10:37:29.395Z,30.99
2024-01-25T10:38:29.224Z,31.22
2024-01-25T10:39:29.219Z,31.27
2024-01-25T10:40:29.480Z,31.32
2024-01-25T10:41:29.695Z,31.26
2024-01-25T10:42:29.225Z,30.46
2024-01-25T10:43:29.274Z,30.90
2024-01-25T10:44:29.234Z,30.47
2024-01-25T10:45:29.322Z,31.02
2024-01-25T10:46:29.362Z,31.39
2024-01-25T10:47:29.457Z,31.10
2024-01-25T10:48:29.483Z,31.39
2024-01-25T10:49:29.632Z,31.46
2024-01-25T10:50:29.736Z,31.42
2024-01-25T10:51:29.642Z,31.42
2024-01-25T10:52:29.748Z,31.37
2024-01-25T10:53:29.653Z,31.45
2024-01-25T10:54:29.715Z,31.39
2024-01-25T10:55:29.832Z,31.45
2024-01-25T10:56:29.760Z,31.37
2024-01-25T10:57:29.768Z,31.33
2024-01-25T10:58:29.955Z,31.31
2024-01-25T10:59:29.800Z,31.26
2024-01-25T11:00:29.778Z,31.33
2024-01-25T11:01:29.892Z,31.25
2024-01-25T11:02:29.922Z,31.17
2024-01-25T11:03:29.847Z,31.25
2024-01-25T11:04:29.891Z,31.22
2024-01-25T11:05:29.912Z,31.25
2024-01-25T11:06:29.878Z,31.22
2024-01-25T11:07:29.775Z,31.21
2024-01-25T11:08:29.806Z,31.27
2024-01-25T11:09:29.782Z,31.26
2024-01-25T11:10:30.008Z,31.16
2024-01-25T11:11:29.701Z,31.30
2024-01-25T11:12:29.769Z,31.29
2024-01-25T11:13:29.850Z,31.36
2024-01-25T11:14:29.681Z,31.38
2024-01-25T11:15:29.692Z,31.39
2024-01-25T11:16:29.797Z,31.38
2024-01-25T11:17:29.775Z,31.48
2024-01-25T11:18:29.813Z,31.38
2024-01-25T11:19:29.778Z,31.42
2024-01-25T11:20:29.984Z,31.48
2024-01-25T11:21:29.781Z,31.59
2024-01-25T11:22:29.756Z,31.57
2024-01-25T11:23:29.589Z,31.61
2024-01-25T11:24:29.577Z,31.54
2024-01-25T11:25:29.715Z,31.46
2024-01-25T11:26:29.560Z,31.54
2024-01-25T11:27:29.566Z,31.48
2024-01-25T11:28:29.631Z,31.46
2024-01-25T11:29:29.530Z,31.63
2024-01-25T11:30:29.558Z,31.54
2024-01-25T11:31:30.089Z,31.34
2024-01-25T11:32:29.587Z,31.23
2024-01-25T11:33:29.612Z,31.16
2024-01-25T11:34:29.663Z,31.19
2024-01-25T11:35:29.685Z,31.55
2024-01-25T11:36:30.335Z,31.55
2024-01-25T11:37:29.685Z,31.88
2024-01-25T11:38:29.469Z,32.50
2024-01-25T11:39:29.429Z,32.60
2024-01-25T11:40:29.489Z,32.60
2024-01-25T11:41:29.416Z,32.42
2024-01-25T11:42:29.365Z,32.26
2024-01-25T11:43:29.383Z,32.32
2024-01-25T11:44:29.350Z,32.28
2024-01-25T11:45:29.329Z,32.31
2024-01-25T11:46:29.428Z,32.32
2024-01-25T11:47:29.409Z,32.49
2024-01-25T11:48:29.379Z,32.48
2024-01-25T11:49:29.383Z,32.57
2024-01-25T11:50:29.487Z,32.65
2024-01-25T11:51:29.266Z,32.68
2024-01-25T11:52:31.407Z,32.83
2024-01-25T11:53:29.301Z,32.83
2024-01-25T11:54:29.307Z,32.74
2024-01-25T11:55:29.442Z,32.55
2024-01-25T11:56:29.357Z,32.70
2024-01-25T11:57:29.328Z,32.86
2024-01-25T11:58:32.074Z,32.77
2024-01-25T11:59:29.304Z,32.76
2024-01-25T12:00:29.300Z,32.69
2024-01-25T12:01:29.362Z,32.82
2024-01-25T12:02:29.366Z,32.74
2024-01-25T12:03:29.230Z,32.72
2024-01-25T12:04:29.390Z,32.85
2024-01-25T12:05:29.362Z,32.71
2024-01-25T12:06:29.307Z,32.61
2024-01-25T12:07:29.280Z,32.31
2024-01-25T12:08:29.278Z,32.41
2024-01-25T12:09:29.144Z,32.56
2024-01-25T12:10:29.204Z,32.71
2024-01-25T12:11:29.182Z,32.81
2024-01-25T12:12:29.117Z,32.95
2024-01-25T12:13:29.215Z,32.98
2024-01-25T12:14:29.113Z,32.66
2024-01-25T12:15:29.196Z,32.59
2024-01-25T12:16:29.253Z,35.59
2024-01-25T12:17:29.360Z,33.14
2024-01-25T12:18:29.517Z,32.76
2024-01-25T12:19:29.515Z,32.96
2024-01-25T12:20:29.529Z,33.09
2024-01-25T12:21:29.504Z,33.23
2024-01-25T12:22:29.704Z,32.96
2024-01-25T12:23:29.540Z,32.62
2024-01-25T12:24:29.582Z,32.63
2024-01-25T12:25:29.686Z,32.55
2024-01-25T12:26:29.682Z,32.82
2024-01-25T12:27:29.731Z,32.82
2024-01-25T12:28:29.956Z,32.57
2024-01-25T12:29:29.774Z,32.67
2024-01-25T12:30:29.805Z,32.59
2024-01-25T12:31:30.044Z,32.50
2024-01-25T12:32:29.860Z,32.34
2024-01-25T12:33:29.907Z,32.24
2024-01-25T12:34:29.849Z,32.03
2024-01-25T12:35:29.833Z,31.94
2024-01-25T12:36:29.661Z,31.90
2024-01-25T12:37:29.721Z,31.80
2024-01-25T12:38:29.612Z,31.69
2024-01-25T12:39:29.642Z,31.64
2024-01-25T12:40:29.794Z,31.56
2024-01-25T12:41:29.693Z,31.70
2024-01-25T12:42:29.643Z,31.66
2024-01-25T12:43:29.632Z,31.73
2024-01-25T12:44:29.584Z,31.76
2024-01-25T12:45:29.649Z,31.88
2024-01-25T12:47:29.674Z,31.88
2024-01-25T12:48:29.526Z,31.89
2024-01-25T12:49:29.476Z,31.78
2024-01-25T12:50:29.442Z,31.73
2024-01-25T12:51:29.487Z,31.67
2024-01-25T12:52:29.391Z,31.60
2024-01-25T12:53:29.373Z,31.52
2024-01-25T12:54:29.382Z,31.45
2024-01-25T12:55:29.336Z,31.35
2024-01-25T12:56:29.303Z,31.29
2024-01-25T12:57:29.323Z,31.25
2024-01-25T12:58:29.295Z,31.15
2024-01-25T12:59:29.322Z,31.04
2024-01-25T13:00:29.394Z,31.01
2024-01-25T13:01:29.534Z,31.02
2024-01-25T13:02:29.473Z,30.94
2024-01-25T13:03:29.536Z,30.90
2024-01-25T13:04:29.614Z,30.86
2024-01-25T13:05:29.596Z,30.77
2024-01-25T13:06:29.665Z,30.73
2024-01-25T13:07:29.679Z,30.68
2024-01-25T13:08:29.756Z,30.63
2024-01-25T13:09:29.833Z,30.55
2024-01-25T13:10:29.813Z,30.51
2024-01-25T13:11:29.850Z,30.47
2024-01-25T13:12:29.875Z,30.42
2024-01-25T13:13:29.832Z,30.40
2024-01-25T13:14:29.826Z,30.31
2024-01-25T13:15:29.818Z,30.30
2024-01-25T13:16:29.981Z,30.23
2024-01-25T13:17:29.764Z,30.20
2024-01-25T13:18:29.821Z,30.20
2024-01-25T13:19:29.823Z,30.12
2024-01-25T13:20:29.739Z,30.10